Time;durP1;ratioP1;P1;durP2;ratioP2;P2;SDS_P1;SDS_P2;PMS_P1;PMS_P2;Temp;Humidity;BMP_temperature;BMP_pressure;BME280_temperature;BME280_humidity;BME280_pressure;Samples;Min_cycle;Max_cycle;Signal;HPM_P1;HPM_P2
2022/06/03 00:00:53;;;;;;;1.58;1.50;;;13.50;99.90;;;;;;4999059;28;20528;-76
2022/06/03 00:03:43;;;;;;;1.58;1.48;;;13.40;99.90;;;;;;5001046;28;20042;-76
2022/06/03 00:06:38;;;;;;;1.25;1.25;;;13.40;99.90;;;;;;5000316;28;20482;-76
2022/06/03 00:09:15;;;;;;;2.10;2.00;;;13.30;99.90;;;;;;4982932;28;20045;-76
2022/06/03 00:12:08;;;;;;;2.00;1.90;;;13.20;99.90;;;;;;5002135;28;20050;-76
2022/06/03 00:15:07;;;;;;;1.60;1.60;;;13.00;99.90;;;;;;5002504;28;20041;-76
2022/06/03 00:17:51;;;;;;;2.22;2.13;;;12.80;99.90;;;;;;5007871;28;20056;-77
2022/06/03 00:20:45;;;;;;;2.83;2.63;;;12.80;99.90;;;;;;5004173;28;20050;-75
2022/06/03 00:23:31;;;;;;;2.80;2.60;;;12.70;99.90;;;;;;5002123;28;20030;-75
2022/06/03 00:26:21;;;;;;;3.00;2.80;;;12.70;99.90;;;;;;5000590;28;20038;-75
2022/06/03 00:29:15;;;;;;;2.40;2.30;;;12.80;99.90;;;;;;5000259;28;20037;-76
2022/06/03 00:31:59;;;;;;;2.50;2.30;;;12.90;99.90;;;;;;4999957;28;20679;-75
2022/06/03 00:34:55;;;;;;;2.53;2.42;;;12.90;99.90;;;;;;5000760;28;20033;-75
2022/06/03 00:37:20;;;;;;;2.20;2.10;;;13.00;99.90;;;;;;5000576;28;20033;-75
2022/06/03 00:40:05;;;;;;;2.30;2.10;;;13.00;99.90;;;;;;5000726;28;20092;-75
2022/06/03 00:42:51;;;;;;;3.05;2.85;;;13.00;99.90;;;;;;5002560;28;20440;-75
2022/06/03 00:45:32;;;;;;;3.78;2.95;;;13.00;99.90;;;;;;5000177;28;20532;-74
2022/06/03 00:48:25;;;;;;;2.90;2.60;;;12.90;99.90;;;;;;5001302;28;20033;-75
2022/06/03 00:51:09;;;;;;;3.20;3.00;;;13.00;99.90;;;;;;5000405;28;20572;-75
2022/06/03 00:54:03;;;;;;;3.47;3.10;;;13.00;99.90;;;;;;5005373;28;20519;-74
2022/06/03 00:56:59;;;;;;;2.70;2.50;;;12.90;99.90;;;;;;4999508;28;20034;-76
2022/06/03 00:59:39;;;;;;;2.10;2.00;;;12.90;99.90;;;;;;5001173;28;20113;-76
2022/06/03 01:02:33;;;;;;;2.50;2.30;;;12.80;99.90;;;;;;4997082;28;20038;-75
2022/06/03 01:05:05;;;;;;;2.28;2.10;;;12.90;99.90;;;;;;5001947;28;20156;-76
2022/06/03 01:07:38;;;;;;;1.98;1.88;;;12.90;99.90;;;;;;5001479;28;20041;-76
2022/06/03 01:10:35;;;;;;;1.55;1.50;;;12.80;99.90;;;;;;5001465;28;20042;-76
2022/06/03 01:13:39;;;;;;;1.40;1.30;;;12.70;99.90;;;;;;4997354;28;20252;-76
2022/06/03 01:16:29;;;;;;;1.00;1.00;;;12.50;99.90;;;;;;5001433;28;20018;-76
2022/06/03 01:19:32;;;;;;;1.20;1.20;;;12.50;99.90;;;;;;4998536;28;20050;-75
2022/06/03 01:22:25;;;;;;;1.38;1.38;;;12.50;99.90;;;;;;4999449;28;20420;-76
2022/06/03 01:25:29;;;;;;;1.30;1.30;;;12.50;99.90;;;;;;5002397;28;20085;-76
2022/06/03 01:28:32;;;;;;;2.08;1.98;;;12.50;99.90;;;;;;5000603;28;20034;-76
2022/06/03 01:31:32;;;;;;;1.75;1.65;;;12.60;99.90;;;;;;4999100;28;20753;-76
2022/06/03 01:34:19;;;;;;;2.08;1.98;;;12.50;99.90;;;;;;4998857;28;20741;-75
2022/06/03 01:37:07;;;;;;;1.50;1.40;;;12.50;99.90;;;;;;4995789;28;20030;-75
2022/06/03 01:40:15;;;;;;;1.52;1.42;;;12.50;99.90;;;;;;4999125;28;20512;-75
2022/06/03 01:42:56;;;;;;;1.20;1.20;;;12.40;99.90;;;;;;4988163;28;20887;-76
2022/06/03 01:45:36;;;;;;;2.80;2.60;;;12.40;99.90;;;;;;5003073;28;20036;-75
2022/06/03 01:48:27;;;;;;;3.40;3.10;;;12.40;99.90;;;;;;4999228;28;20113;-75
2022/06/03 01:51:01;;;;;;;3.55;3.25;;;12.40;99.90;;;;;;4998767;28;20452;-75
2022/06/03 01:53:51;;;;;;;3.80;3.47;;;12.00;99.90;;;;;;4998737;28;20527;-75
2022/06/03 01:56:41;;;;;;;4.47;3.30;;;11.70;99.90;;;;;;4998149;28;20420;-75
2022/06/03 01:59:49;;;;;;;4.40;3.50;;;11.70;99.90;;;;;;4997870;28;20096;-76
2022/06/03 02:02:15;;;;;;;;;;;11.90;99.90;;;;;;4995417;28;20042;-75
2022/06/03 02:05:04;;;;;;;4.40;4.00;;;11.80;99.90;;;;;;4997716;28;19910;-75
2022/06/03 02:07:50;;;;;;;3.92;3.60;;;11.70;99.90;;;;;;4998180;28;20437;-75
2022/06/03 02:10:38;;;;;;;4.38;3.55;;;11.80;99.90;;;;;;4996709;28;20065;-75
2022/06/03 02:13:32;;;;;;;3.83;3.53;;;11.90;99.90;;;;;;5001299;28;20355;-75
2022/06/03 02:16:19;;;;;;;3.55;2.67;;;11.80;99.90;;;;;;4996172;28;20030;-76
2022/06/03 02:19:12;;;;;;;3.33;2.50;;;11.70;99.90;;;;;;5001758;28;20046;-76
2022/06/03 02:22:02;;;;;;;2.70;2.50;;;11.50;99.90;;;;;;4997896;28;20053;-75
2022/06/03 02:24:39;;;;;;;3.50;3.20;;;11.70;99.90;;;;;;4998989;28;20040;-75
2022/06/03 02:27:48;;;;;;;3.20;2.90;;;11.80;99.90;;;;;;4996598;28;20034;-75
2022/06/03 02:30:47;;;;;;;3.97;2.95;;;11.90;99.90;;;;;;4999660;28;20056;-75
2022/06/03 02:33:48;;;;;;;3.33;2.95;;;11.90;99.90;;;;;;4998390;28;20440;-75
2022/06/03 02:36:35;;;;;;;3.47;3.17;;;12.00;99.90;;;;;;4995060;28;20029;-75
2022/06/03 02:39:21;;;;;;;3.10;2.90;;;11.90;99.90;;;;;;4999541;28;20069;-75
2022/06/03 02:42:24;;;;;;;1.90;1.80;;;11.90;99.90;;;;;;4987177;28;20037;-75
2022/06/03 02:44:53;;;;;;;3.00;2.80;;;12.00;99.90;;;;;;4994771;28;20386;-76
2022/06/03 02:47:18;;;;;;;;;;;11.80;99.90;;;;;;5003860;28;20285;-75
2022/06/03 02:49:50;;;;;;;4.70;3.75;;;11.60;99.90;;;;;;4996080;28;19925;-75
2022/06/03 02:52:39;;;;;;;3.75;3.40;;;11.50;99.90;;;;;;4996454;28;20037;-75
2022/06/03 02:55:23;;;;;;;3.10;2.83;;;11.40;99.90;;;;;;4992051;28;20105;-74
2022/06/03 02:58:12;;;;;;;2.85;2.65;;;11.40;99.90;;;;;;4997170;28;20074;-75
2022/06/03 03:00:42;;;;;;;2.30;2.13;;;11.50;99.90;;;;;;4987810;28;20042;-75
2022/06/03 03:03:37;;;;;;;4.60;3.80;;;11.50;99.90;;;;;;4996791;28;20482;-75
2022/06/03 03:06:49;;;;;;;4.47;4.07;;;11.60;99.90;;;;;;5001447;28;20417;-75
2022/06/03 03:09:24;;;;;;;4.25;3.45;;;11.50;99.90;;;;;;4957471;28;20042;-74
2022/06/03 03:12:17;;;;;;;3.22;2.92;;;11.60;99.90;;;;;;5000577;28;20455;-74
2022/06/03 03:15:03;;;;;;;2.65;2.45;;;11.60;99.90;;;;;;4998957;28;20377;-74
2022/06/03 03:17:48;;;;;;;2.97;2.78;;;11.50;99.90;;;;;;4994900;28;20056;-75
2022/06/03 03:20:32;;;;;;;2.67;2.47;;;11.40;99.90;;;;;;4999064;28;22297;-74
2022/06/03 03:23:17;;;;;;;3.10;2.90;;;11.30;99.90;;;;;;5001814;28;20041;-75
2022/06/03 03:26:04;;;;;;;3.45;3.15;;;11.40;99.90;;;;;;5000249;28;20039;-74
2022/06/03 03:28:52;;;;;;;4.80;4.30;;;11.40;99.90;;;;;;5003900;28;20034;-75
2022/06/03 03:31:40;;;;;;;4.05;3.63;;;11.30;99.90;;;;;;5005804;28;20127;-75
2022/06/03 03:34:51;;;;;;;4.53;4.10;;;11.30;99.90;;;;;;5002216;28;20038;-75
2022/06/03 03:38:08;;;;;;;3.33;2.97;;;11.40;99.90;;;;;;4999445;28;20049;-74
2022/06/03 03:41:01;;;;;;;2.95;2.75;;;11.40;99.90;;;;;;4939032;28;20043;-75
2022/06/03 03:44:02;;;;;;;3.33;3.03;;;11.50;99.90;;;;;;5000077;28;20056;-74
2022/06/03 03:46:46;;;;;;;3.45;3.15;;;11.70;99.90;;;;;;4997422;28;20038;-76
2022/06/03 03:49:41;;;;;;;2.50;2.40;;;11.70;99.90;;;;;;4980733;28;20038;-75
2022/06/03 03:52:13;;;;;;;2.70;2.42;;;11.50;99.90;;;;;;4973775;28;20061;-75
2022/06/03 03:55:01;;;;;;;2.60;2.40;;;11.40;99.90;;;;;;5003221;28;20439;-75
2022/06/03 03:58:04;;;;;;;4.40;4.00;;;11.50;99.90;;;;;;4998962;28;20460;-76
2022/06/03 04:00:56;;;;;;;5.10;3.70;;;11.60;99.90;;;;;;5000477;28;20041;-75
2022/06/03 04:03:48;;;;;;;4.43;3.63;;;11.40;99.90;;;;;;4996677;28;20026;-75
2022/06/03 04:06:27;;;;;;;4.97;4.40;;;11.40;99.90;;;;;;4985387;28;20092;-75
2022/06/03 04:09:24;;;;;;;7.95;4.70;;;11.40;99.90;;;;;;5001737;28;20072;-75
2022/06/03 04:12:11;;;;;;;4.85;4.22;;;11.50;99.90;;;;;;5003432;28;20425;-75
2022/06/03 04:14:39;;;;;;;4.55;3.75;;;11.60;99.90;;;;;;5001564;28;20030;-74
2022/06/03 04:17:49;;;;;;;4.75;4.35;;;11.70;99.90;;;;;;4999723;28;20034;-75
2022/06/03 04:20:36;;;;;;;4.70;4.10;;;11.70;99.90;;;;;;4998516;28;20070;-75
2022/06/03 04:23:40;;;;;;;3.30;3.10;;;11.60;99.90;;;;;;5003183;28;20521;-75
2022/06/03 04:26:33;;;;;;;3.25;3.00;;;11.60;99.90;;;;;;5004623;28;20539;-74
2022/06/03 04:29:35;;;;;;;3.80;3.50;;;11.70;99.90;;;;;;5001620;28;20076;-75
2022/06/03 04:32:03;;;;;;;4.53;3.15;;;11.80;99.90;;;;;;5004225;28;20064;-75
2022/06/03 04:35:07;;;;;;;4.05;3.67;;;11.80;99.90;;;;;;5002929;28;20533;-75
2022/06/03 04:37:57;;;;;;;3.92;3.53;;;11.90;99.90;;;;;;5003141;28;20081;-75
2022/06/03 04:40:41;;;;;;;3.95;3.45;;;12.10;99.90;;;;;;5003188;28;20029;-75
2022/06/03 04:43:15;;;;;;;4.07;3.70;;;12.20;99.90;;;;;;5002378;28;20037;-75
2022/06/03 04:46:09;;;;;;;4.72;4.28;;;12.30;99.90;;;;;;5002940;28;20042;-75
2022/06/03 04:49:10;;;;;;;4.40;4.00;;;12.50;99.90;;;;;;5001167;28;20049;-76
2022/06/03 04:52:04;;;;;;;4.45;4.05;;;12.70;99.90;;;;;;5002022;28;20053;-75
2022/06/03 04:55:00;;;;;;;5.65;4.90;;;12.90;99.90;;;;;;5001636;28;20037;-75
2022/06/03 04:57:44;;;;;;;6.07;5.53;;;13.10;99.90;;;;;;5002621;28;20040;-75
2022/06/03 05:00:24;;;;;;;6.13;5.10;;;13.10;99.90;;;;;;5000576;28;20034;-75
2022/06/03 05:03:05;;;;;;;6.15;4.90;;;13.10;99.90;;;;;;5000673;28;20133;-75
2022/06/03 05:06:20;;;;;;;7.47;5.72;;;13.20;99.90;;;;;;5002716;28;20481;-75
2022/06/03 05:09:01;;;;;;;6.25;5.65;;;13.40;99.90;;;;;;5001383;28;20030;-74
2022/06/03 05:11:50;;;;;;;6.63;5.93;;;13.30;99.90;;;;;;5002476;28;20042;-77
2022/06/03 05:14:38;;;;;;;7.40;5.95;;;13.50;99.90;;;;;;4997528;28;20027;-75
2022/06/03 05:17:50;;;;;;;7.57;6.78;;;13.70;99.90;;;;;;4998358;28;20228;-75
2022/06/03 05:20:53;;;;;;;8.35;7.07;;;13.90;99.90;;;;;;4998495;28;20101;-75
2022/06/03 05:23:40;;;;;;;9.02;8.13;;;14.20;99.90;;;;;;4995171;28;20057;-76
2022/06/03 05:26:21;;;;;;;9.77;7.80;;;14.40;99.90;;;;;;4996231;28;20178;-76
2022/06/03 05:29:25;;;;;;;8.93;7.22;;;14.70;99.90;;;;;;4996291;28;20030;-75
2022/06/03 05:32:11;;;;;;;7.95;6.53;;;14.80;99.90;;;;;;4996489;28;20061;-75
2022/06/03 05:35:14;;;;;;;8.57;7.22;;;14.80;99.90;;;;;;4998725;28;20048;-74
2022/06/03 05:37:58;;;;;;;7.90;6.85;;;15.00;99.90;;;;;;4995190;28;20606;-75
2022/06/03 05:40:33;;;;;;;8.05;6.47;;;15.30;99.90;;;;;;4988072;28;20503;-75
2022/06/03 05:43:30;;;;;;;7.55;6.68;;;15.40;99.90;;;;;;4982066;28;20458;-75
2022/06/03 05:45:55;;;;;;;8.13;6.80;;;15.50;99.90;;;;;;5001096;28;20025;-75
2022/06/03 05:48:33;;;;;;;8.80;7.50;;;15.50;99.90;;;;;;5004645;28;20026;-75
2022/06/03 05:51:45;;;;;;;9.80;6.75;;;15.50;99.90;;;;;;5002957;28;20509;-75
2022/06/03 05:54:14;;;;;;;8.25;6.80;;;15.50;99.90;;;;;;4978243;28;20413;-76
2022/06/03 05:57:18;;;;;;;8.48;7.65;;;15.40;99.90;;;;;;5005615;28;20066;-75
2022/06/03 06:00:16;;;;;;;9.60;6.78;;;15.30;99.90;;;;;;4961751;28;20083;-75
2022/06/03 06:02:46;;;;;;;;;;;15.30;99.90;;;;;;5001181;28;20878;-76
2022/06/03 06:05:31;;;;;;;8.85;6.45;;;15.30;99.90;;;;;;5000773;28;19915;-76
2022/06/03 06:08:08;;;;;;;9.48;6.90;;;15.30;99.90;;;;;;4987730;28;20436;-76
2022/06/03 06:11:05;;;;;;;7.72;6.80;;;15.40;99.90;;;;;;4997604;28;20030;-76
2022/06/03 06:13:31;;;;;;;9.98;6.97;;;15.40;99.90;;;;;;5004830;28;20088;-76
2022/06/03 06:16:11;;;;;;;8.40;6.72;;;15.50;99.90;;;;;;5000815;28;20069;-76
2022/06/03 06:18:55;;;;;;;9.65;7.30;;;15.50;99.90;;;;;;5003039;28;20485;-76
2022/06/03 06:21:29;;;;;;;9.80;6.63;;;15.50;99.90;;;;;;5008373;28;20089;-77
2022/06/03 06:23:55;;;;;;;9.35;7.57;;;15.70;99.90;;;;;;5000912;28;20057;-76
2022/06/03 06:26:42;;;;;;;8.15;7.00;;;15.70;99.90;;;;;;5008887;28;20389;-76
2022/06/03 06:29:13;;;;;;;9.20;6.80;;;15.80;99.90;;;;;;4990494;28;20044;-76
2022/06/03 06:32:00;;;;;;;9.25;7.00;;;16.00;99.90;;;;;;4998859;28;20122;-77
2022/06/03 06:34:50;;;;;;;8.85;7.25;;;16.20;99.90;;;;;;5015911;28;20049;-77
2022/06/03 06:37:39;;;;;;;7.60;6.82;;;16.60;99.90;;;;;;5005589;28;20045;-77
2022/06/03 06:40:09;;;;;;;7.88;6.32;;;17.00;99.90;;;;;;5006529;28;20033;-76
2022/06/03 06:42:53;;;;;;;6.78;5.97;;;17.00;99.90;;;;;;5004650;28;20033;-76
2022/06/03 06:45:48;;;;;;;6.53;5.63;;;17.20;99.90;;;;;;5007588;28;20503;-77
2022/06/03 06:48:22;;;;;;;8.30;6.60;;;17.70;99.90;;;;;;5008640;28;20033;-76
2022/06/03 06:51:33;;;;;;;7.78;6.82;;;18.00;99.90;;;;;;5010140;28;20501;-76
2022/06/03 06:54:41;;;;;;;8.77;6.32;;;18.10;99.90;;;;;;4949597;28;20055;-76
2022/06/03 06:57:11;;;;;;;6.43;5.72;;;18.00;99.90;;;;;;4917042;29;20032;-76
2022/06/03 06:59:42;;;;;;;7.22;6.13;;;18.30;99.90;;;;;;4996550;28;20052;-75
2022/06/03 07:02:20;;;;;;;7.97;6.50;;;18.50;99.90;;;;;;5013161;28;20077;-76
2022/06/03 07:04:52;;;;;;;;;;;18.50;99.90;;;;;;5009299;28;20084;-76
2022/06/03 07:07:32;;;;;;;6.53;5.68;;;18.60;99.90;;;;;;4990828;28;19925;-76
2022/06/03 07:10:10;;;;;;;8.82;6.20;;;18.80;99.90;;;;;;5005411;28;20046;-76
2022/06/03 07:12:46;;;;;;;7.05;5.50;;;19.00;99.90;;;;;;5010330;28;20563;-76
2022/06/03 07:15:17;;;;;;;7.22;5.43;;;19.10;99.90;;;;;;4989956;28;20108;-76
2022/06/03 07:20:55;;;;;;;6.82;6.22;;;19.30;99.90;;;;;;5007383;28;20141;-77
2022/06/03 07:23:42;;;;;;;6.85;5.38;;;19.30;99.90;;;;;;4990517;28;20037;-76
2022/06/03 07:26:35;;;;;;;5.70;5.15;;;19.40;99.90;;;;;;5003742;28;20057;-76
2022/06/03 07:29:16;;;;;;;5.72;5.22;;;19.40;99.90;;;;;;5009638;28;20074;-76
2022/06/03 07:32:10;;;;;;;8.35;5.60;;;19.50;99.90;;;;;;5007797;28;20125;-76
2022/06/03 07:35:03;;;;;;;8.18;5.65;;;19.60;99.90;;;;;;5012598;28;20484;-77
2022/06/03 07:37:52;;;;;;;7.32;6.03;;;19.60;99.90;;;;;;5008466;28;20038;-76
2022/06/03 07:40:57;;;;;;;7.25;5.60;;;19.80;99.90;;;;;;5010070;28;20097;-77
2022/06/03 07:43:44;;;;;;;5.68;5.03;;;20.00;99.90;;;;;;5007205;28;20033;-76
2022/06/03 07:46:13;;;;;;;6.07;5.47;;;20.30;99.90;;;;;;5008014;28;20037;-77
2022/06/03 07:48:39;;;;;;;5.38;4.88;;;20.40;99.90;;;;;;5006744;28;20499;-76
2022/06/03 07:51:26;;;;;;;12.30;5.43;;;20.70;99.90;;;;;;5001453;28;20038;-76
2022/06/03 07:54:04;;;;;;;8.23;5.47;;;20.80;99.90;;;;;;5008777;28;20061;-76
2022/06/03 07:56:31;;;;;;;;;;;20.90;99.90;;;;;;5007293;28;20041;-75
2022/06/03 07:59:02;;;;;;;6.75;5.30;;;20.80;99.90;;;;;;5012038;28;19921;-77
2022/06/03 08:01:33;;;;;;;6.28;4.90;;;20.80;99.90;;;;;;5008688;28;20048;-77
2022/06/03 08:03:59;;;;;;;5.32;4.82;;;20.80;99.90;;;;;;4988131;28;20359;-77
2022/06/03 08:12:34;;;;;;;5.03;4.53;;;21.20;99.90;;;;;;5005186;28;20049;-77
2022/06/03 08:15:16;;;;;;;5.30;4.32;;;21.40;99.90;;;;;;5002785;28;20030;-77
2022/06/03 08:17:44;;;;;;;5.28;4.75;;;21.40;98.50;;;;;;5010062;28;20051;-76
2022/06/03 08:20:11;;;;;;;4.78;4.25;;;21.60;99.70;;;;;;5003441;28;20030;-76
2022/06/03 08:22:38;;;;;;;4.88;4.32;;;21.70;99.90;;;;;;5004047;28;20025;-77
2022/06/03 08:25:06;;;;;;;5.30;4.80;;;21.90;99.90;;;;;;5004152;28;20027;-76
2022/06/03 08:27:32;;;;;;;;;;;21.90;99.10;;;;;;5010868;28;20041;-77
2022/06/03 08:30:08;;;;;;;4.65;4.20;;;21.90;99.10;;;;;;5002310;28;20316;-76
2022/06/03 08:32:55;;;;;;;4.57;4.18;;;22.00;97.60;;;;;;5004328;28;20076;-77
2022/06/03 08:35:26;;;;;;;4.53;4.13;;;22.00;97.80;;;;;;5006020;28;20084;-76
2022/06/03 08:38:12;;;;;;;5.47;4.40;;;22.10;95.50;;;;;;5005537;28;20460;-77
2022/06/03 08:40:54;;;;;;;4.93;4.35;;;22.30;97.70;;;;;;5001842;28;20038;-77
2022/06/03 08:43:36;;;;;;;4.70;4.03;;;22.30;97.20;;;;;;5011787;28;20098;-76
2022/06/03 08:46:17;;;;;;;6.38;4.05;;;22.30;95.30;;;;;;5006032;28;20522;-76
2022/06/03 08:48:45;;;;;;;5.18;4.68;;;22.40;97.30;;;;;;5001231;28;20026;-77
2022/06/03 08:51:51;;;;;;;4.22;3.88;;;22.60;97.20;;;;;;5002947;28;20034;-77
2022/06/03 08:54:44;;;;;;;4.40;4.00;;;22.60;96.30;;;;;;5001574;28;20127;-77
2022/06/03 08:57:39;;;;;;;4.85;4.13;;;22.80;93.20;;;;;;5000156;28;20045;-76
2022/06/03 09:00:13;;;;;;;5.00;4.00;;;23.00;97.50;;;;;;4982494;28;20052;-77
2022/06/03 09:02:48;;;;;;;4.78;3.90;;;23.10;96.50;;;;;;5005810;28;20037;-76
2022/06/03 09:05:56;;;;;;;4.57;4.18;;;23.10;94.90;;;;;;5005483;28;20030;-77
2022/06/03 09:08:46;;;;;;;4.80;3.53;;;23.10;92.60;;;;;;4981431;28;20138;-76
2022/06/03 09:11:29;;;;;;;4.68;4.15;;;23.20;95.00;;;;;;5002358;28;20049;-76
2022/06/03 09:14:06;;;;;;;4.00;3.60;;;23.20;95.40;;;;;;5002304;28;20502;-76
2022/06/03 09:16:34;;;;;;;4.28;3.65;;;23.30;92.80;;;;;;5000694;28;20030;-78
2022/06/03 09:19:04;;;;;;;;;;;23.40;96.90;;;;;;5005350;28;20111;-76
2022/06/03 09:21:35;;;;;;;4.25;3.85;;;23.50;91.90;;;;;;5005645;28;20364;-76
2022/06/03 09:24:13;;;;;;;3.80;3.50;;;23.70;92.60;;;;;;5008974;28;20393;-77
2022/06/03 09:26:44;;;;;;;3.58;3.28;;;23.70;87.20;;;;;;5003984;28;20053;-76
2022/06/03 09:29:12;;;;;;;4.18;3.65;;;23.90;88.60;;;;;;5004942;28;20041;-77
2022/06/03 09:31:41;;;;;;;4.18;3.35;;;24.00;82.50;;;;;;5003183;28;20046;-77
2022/06/03 09:34:10;;;;;;;4.82;3.70;;;24.10;82.30;;;;;;5004240;28;20054;-77
2022/06/03 09:36:36;;;;;;;3.70;3.40;;;24.10;88.40;;;;;;4987127;28;20030;-77
2022/06/03 09:39:13;;;;;;;4.10;3.70;;;24.20;85.30;;;;;;4984200;28;20030;-77
2022/06/03 09:41:43;;;;;;;3.65;3.20;;;24.30;80.70;;;;;;5003614;28;20113;-76
2022/06/03 09:44:14;;;;;;;4.03;3.65;;;24.40;82.40;;;;;;5008360;28;20524;-77
2022/06/03 09:46:42;;;;;;;3.67;3.10;;;24.50;81.80;;;;;;5009903;28;20032;-77
2022/06/03 09:49:09;;;;;;;4.07;3.65;;;24.70;79.10;;;;;;5007519;28;20043;-78
2022/06/03 09:51:56;;;;;;;4.00;3.60;;;24.60;86.20;;;;;;5013336;28;20500;-77
2022/06/03 09:54:25;;;;;;;4.00;3.60;;;24.60;80.60;;;;;;4999589;28;20388;-77
2022/06/03 09:56:56;;;;;;;4.43;3.80;;;24.70;82.30;;;;;;5004029;28;20041;-77
2022/06/03 09:59:23;;;;;;;5.93;4.05;;;24.70;81.40;;;;;;5000780;28;20041;-77
2022/06/03 10:01:50;;;;;;;4.03;3.63;;;24.80;76.30;;;;;;5003199;28;20046;-77
2022/06/03 10:04:18;;;;;;;4.43;3.80;;;24.90;75.50;;;;;;4988268;28;20584;-77
2022/06/03 10:06:43;;;;;;;;;;;25.00;81.90;;;;;;5004307;28;20041;-77
2022/06/03 10:17:52;;;;;;;7.05;4.22;;;25.20;73.50;;;;;;5005939;28;20052;-78
2022/06/03 10:20:19;;;;;;;4.18;3.78;;;25.30;76.70;;;;;;5008206;28;20034;-78
2022/06/03 10:22:45;;;;;;;5.00;4.13;;;25.00;76.90;;;;;;5004311;28;20129;-78
2022/06/03 10:25:12;;;;;;;4.97;3.80;;;24.90;84.60;;;;;;5005685;28;20489;-78
2022/06/03 10:27:37;;;;;;;3.95;3.65;;;24.70;85.80;;;;;;5000927;28;20034;-78
2022/06/03 10:30:05;;;;;;;5.95;4.13;;;24.70;72.70;;;;;;5004109;28;20492;-78
2022/06/03 10:32:33;;;;;;;4.10;3.70;;;24.80;79.10;;;;;;5002779;28;20045;-78
2022/06/03 10:35:18;;;;;;;;;;;25.00;79.50;;;;;;5000670;28;20031;-78
2022/06/03 10:38:07;;;;;;;4.35;3.35;;;25.10;80.60;;;;;;5005423;28;19909;-78
2022/06/03 10:40:34;;;;;;;4.72;3.97;;;25.20;87.90;;;;;;5002034;28;20022;-78
2022/06/03 10:43:02;;;;;;;5.35;3.40;;;25.10;72.20;;;;;;5009673;28;20022;-78
2022/06/03 10:45:27;;;;;;;;;;;24.90;79.20;;;;;;5004350;28;20050;-78
2022/06/03 10:47:53;;;;;;;5.13;3.25;;;24.90;71.80;;;;;;4985236;28;19997;-78
2022/06/03 10:50:38;;;;;;;4.97;3.28;;;25.30;81.50;;;;;;5007284;28;20038;-78
2022/06/03 11:01:44;;;;;;;4.25;3.80;;;25.10;92.00;;;;;;5005500;28;21490;-78
2022/06/03 11:04:30;;;;;;;4.15;3.60;;;24.90;91.30;;;;;;5006704;28;20309;-78
2022/06/03 11:07:03;;;;;;;4.65;4.18;;;24.80;93.90;;;;;;5004542;28;20037;-79
2022/06/03 11:09:29;;;;;;;6.20;3.88;;;24.90;84.00;;;;;;5002116;28;20124;-78
2022/06/03 11:12:02;;;;;;;5.60;3.88;;;25.00;87.80;;;;;;5004523;28;20038;-78
2022/06/03 11:14:41;;;;;;;4.75;3.88;;;25.10;92.70;;;;;;5004725;28;20409;-78
2022/06/03 11:17:17;;;;;;;3.88;3.50;;;25.30;78.60;;;;;;4996447;28;20045;-78
2022/06/03 11:19:49;;;;;;;3.60;3.30;;;25.40;75.70;;;;;;5004252;28;20097;-79
2022/06/03 11:22:20;;;;;;;4.03;3.22;;;25.40;78.50;;;;;;5004500;28;20045;-79
2022/06/03 11:24:56;;;;;;;3.38;3.08;;;25.40;81.30;;;;;;5000949;28;20467;-79
2022/06/03 11:27:48;;;;;;;3.05;2.75;;;25.70;87.60;;;;;;4985540;28;20058;-78
2022/06/03 11:30:24;;;;;;;3.38;3.08;;;26.20;80.70;;;;;;5004522;28;20635;-79
2022/06/03 11:32:55;;;;;;;3.60;3.30;;;26.50;78.30;;;;;;5005378;28;20042;-78
2022/06/03 11:35:48;;;;;;;4.35;3.95;;;26.50;76.40;;;;;;5001762;28;20045;-78
2022/06/03 11:38:20;;;;;;;3.58;3.25;;;26.50;70.20;;;;;;5004050;28;20400;-79
2022/06/03 11:40:53;;;;;;;4.53;3.83;;;26.50;66.90;;;;;;5003978;28;20044;-78
2022/06/03 11:43:29;;;;;;;3.88;3.20;;;26.40;75.90;;;;;;5006302;28;20096;-78
2022/06/03 11:46:00;;;;;;;3.95;3.55;;;26.40;89.90;;;;;;5004685;28;20030;-78
2022/06/03 11:48:29;;;;;;;3.40;3.00;;;26.40;86.40;;;;;;5007144;28;20033;-78
2022/06/03 11:50:55;;;;;;;3.63;2.80;;;26.40;82.30;;;;;;5010863;28;20034;-78
2022/06/03 11:53:25;;;;;;;3.17;2.70;;;26.30;70.50;;;;;;5010037;28;20026;-78
2022/06/03 11:55:56;;;;;;;3.60;3.30;;;26.20;73.40;;;;;;5007561;28;20060;-78
2022/06/03 11:58:55;;;;;;;4.70;3.15;;;26.20;70.10;;;;;;5003831;28;20038;-78
2022/06/03 12:01:52;;;;;;;2.95;2.75;;;26.20;79.00;;;;;;5003345;28;20100;-78
2022/06/03 12:04:47;;;;;;;3.72;2.58;;;26.40;69.80;;;;;;5002841;28;20038;-78
2022/06/03 12:07:33;;;;;;;3.13;2.60;;;26.70;73.80;;;;;;5006381;28;20073;-78
2022/06/03 12:10:22;;;;;;;3.28;2.47;;;27.00;62.30;;;;;;5012243;28;20645;-77
2022/06/03 12:13:26;;;;;;;3.05;2.72;;;26.70;60.70;;;;;;5009523;28;20037;-78
2022/06/03 12:15:55;;;;;;;3.25;2.95;;;26.60;64.30;;;;;;5005205;28;20076;-78
2022/06/03 12:18:37;;;;;;;2.97;2.75;;;26.60;66.80;;;;;;5008325;28;20053;-78
2022/06/03 12:21:08;;;;;;;2.58;2.38;;;26.60;62.50;;;;;;5005856;28;20022;-78
2022/06/03 12:23:36;;;;;;;3.33;3.00;;;26.70;63.80;;;;;;5009190;28;20568;-78
2022/06/03 12:26:05;;;;;;;3.40;3.10;;;26.90;73.80;;;;;;5005741;28;21262;-78
2022/06/03 12:28:42;;;;;;;3.97;3.20;;;26.90;67.20;;;;;;5007146;28;20026;-78
2022/06/03 12:31:20;;;;;;;3.20;3.00;;;26.70;65.60;;;;;;5001929;28;20053;-78
2022/06/03 12:33:57;;;;;;;4.20;2.70;;;26.60;70.80;;;;;;5006132;28;20096;-78
2022/06/03 12:36:38;;;;;;;3.00;2.75;;;26.60;63.80;;;;;;5006209;28;20093;-78
2022/06/03 12:39:09;;;;;;;7.35;3.20;;;26.80;70.20;;;;;;5005396;28;20030;-78
2022/06/03 12:41:44;;;;;;;3.33;2.97;;;26.80;64.60;;;;;;5004140;28;20030;-78
2022/06/03 12:44:41;;;;;;;3.40;2.67;;;26.80;66.80;;;;;;5002557;28;20022;-78
2022/06/03 12:47:34;;;;;;;3.03;2.63;;;26.70;59.80;;;;;;5003523;28;20081;-76
2022/06/03 12:50:21;;;;;;;3.50;2.70;;;26.70;64.00;;;;;;5007198;28;20034;-76
2022/06/03 12:52:47;;;;;;;3.07;2.50;;;26.70;66.10;;;;;;5007205;28;20030;-76
2022/06/03 12:55:32;;;;;;;2.80;2.60;;;26.90;61.70;;;;;;5008331;28;20033;-76
2022/06/03 12:58:03;;;;;;;3.53;2.80;;;27.00;59.20;;;;;;4990167;28;20044;-76
2022/06/03 13:00:50;;;;;;;4.63;2.50;;;27.10;58.30;;;;;;5007128;28;20030;-77
2022/06/03 13:03:16;;;;;;;3.00;2.67;;;27.00;60.40;;;;;;5005296;28;20482;-77
2022/06/03 13:05:44;;;;;;;3.20;1.95;;;26.90;62.20;;;;;;5008350;28;20080;-77
2022/06/03 13:08:28;;;;;;;2.50;2.30;;;26.80;59.30;;;;;;5010663;28;20032;-76
2022/06/03 13:11:06;;;;;;;2.30;2.10;;;26.80;61.40;;;;;;5010105;28;20048;-77
2022/06/03 13:13:32;;;;;;;3.58;2.10;;;26.60;59.00;;;;;;4987550;28;20025;-77
2022/06/03 13:16:26;;;;;;;2.47;2.08;;;26.60;60.00;;;;;;5004855;28;20040;-76
2022/06/03 13:18:57;;;;;;;2.50;2.30;;;26.70;57.70;;;;;;5008557;28;20042;-77
2022/06/03 13:22:02;;;;;;;3.00;2.10;;;26.80;56.50;;;;;;5006486;28;20026;-77
2022/06/03 13:24:30;;;;;;;2.42;2.22;;;26.90;55.40;;;;;;4943479;28;20043;-77
2022/06/03 13:27:12;;;;;;;2.40;2.20;;;27.10;53.40;;;;;;4975558;28;20104;-77
2022/06/03 13:29:51;;;;;;;3.00;2.10;;;27.20;55.80;;;;;;5005278;28;20034;-77
2022/06/03 13:32:36;;;;;;;3.15;1.83;;;27.20;57.10;;;;;;5002964;28;20128;-77
2022/06/03 13:35:08;;;;;;;4.05;2.00;;;27.00;53.20;;;;;;5004309;28;20037;-76
2022/06/03 13:37:55;;;;;;;3.25;2.13;;;26.70;54.40;;;;;;5003208;28;20075;-76
2022/06/03 13:40:34;;;;;;;3.92;1.95;;;26.60;55.40;;;;;;5007304;28;20049;-76
2022/06/03 13:43:00;;;;;;;2.53;1.80;;;26.80;53.50;;;;;;4995042;28;20144;-77
2022/06/03 13:45:53;;;;;;;2.15;1.95;;;26.90;54.70;;;;;;5009316;28;20626;-77
2022/06/03 13:48:24;;;;;;;2.30;1.95;;;26.90;52.00;;;;;;5003886;28;20038;-76
2022/06/03 13:50:51;;;;;;;3.65;2.10;;;26.90;52.30;;;;;;5002268;28;20046;-78
2022/06/03 13:53:27;;;;;;;2.83;2.10;;;26.80;59.50;;;;;;5002788;28;20041;-78
2022/06/03 13:56:00;;;;;;;3.80;1.98;;;26.70;52.00;;;;;;5008432;28;20018;-78
2022/06/03 13:58:33;;;;;;;2.13;2.03;;;26.60;53.00;;;;;;5007615;28;20116;-78
2022/06/03 14:01:23;;;;;;;5.43;2.20;;;26.60;54.60;;;;;;5003932;28;20105;-78
2022/06/03 14:04:16;;;;;;;3.20;2.10;;;26.60;54.70;;;;;;5005345;28;20041;-78
2022/06/03 14:06:52;;;;;;;2.30;2.17;;;26.60;57.00;;;;;;5000397;28;20080;-78
2022/06/03 14:09:30;;;;;;;2.53;2.33;;;26.40;61.00;;;;;;5002514;28;20038;-78
2022/06/03 14:12:12;;;;;;;2.25;2.05;;;26.20;63.30;;;;;;5008937;28;20125;-78
2022/06/03 14:15:04;;;;;;;2.40;2.20;;;26.10;67.30;;;;;;5005467;28;20520;-78
2022/06/03 14:17:31;;;;;;;3.55;2.42;;;26.00;64.10;;;;;;5003528;28;20038;-78
2022/06/03 14:20:14;;;;;;;;;;;25.80;59.40;;;;;;5008115;28;20030;-78
2022/06/03 14:22:46;;;;;;;2.20;2.10;;;25.90;61.00;;;;;;5000376;28;19996;-78
2022/06/03 14:25:35;;;;;;;2.35;1.80;;;26.00;64.20;;;;;;5001964;28;20045;-78
2022/06/03 14:28:14;;;;;;;3.25;2.20;;;26.10;65.20;;;;;;4996057;28;20057;-78
2022/06/03 14:30:45;;;;;;;2.05;1.95;;;26.10;62.80;;;;;;5009201;28;20057;-78
2022/06/03 14:33:13;;;;;;;4.53;1.85;;;26.10;61.80;;;;;;5007748;28;20080;-78
2022/06/03 14:35:43;;;;;;;2.17;1.80;;;26.10;63.30;;;;;;5005417;28;20038;-78